createdAt,value
2022-11-16T00:00:50.196Z,85.50
2022-11-16T00:06:01.845Z,86.70
2022-11-16T00:11:12.729Z,84.80
2022-11-16T00:16:21.503Z,88.70
2022-11-16T00:21:30.125Z,85.60
2022-11-16T00:26:37.814Z,85.60
2022-11-16T00:31:46.194Z,86.40
2022-11-16T00:36:54.492Z,102.60
2022-11-16T00:42:02.125Z,90.10
2022-11-16T00:47:10.720Z,88.20
2022-11-16T00:52:18.496Z,97.10
2022-11-16T00:57:26.449Z,103.20
2022-11-16T01:02:34.599Z,106.40
2022-11-16T01:07:43.744Z,112.10
2022-11-16T01:12:52.890Z,117.10
2022-11-16T01:18:00.554Z,115.00
2022-11-16T01:23:08.789Z,112.70
2022-11-16T01:28:19.206Z,110.70
2022-11-16T01:33:31.743Z,105.00
2022-11-16T01:38:39.611Z,103.10
2022-11-16T01:43:57.118Z,97.40
2022-11-16T01:49:12.242Z,98.00
2022-11-16T01:54:20.917Z,93.90
2022-11-16T01:59:36.572Z,88.10
2022-11-16T02:04:51.356Z,97.30
2022-11-16T02:10:18.001Z,90.30
2022-11-16T02:15:31.128Z,92.50
2022-11-16T02:20:56.116Z,91.30
2022-11-16T02:26:26.389Z,93.50
2022-11-16T02:31:39.003Z,92.10
2022-11-16T02:36:48.531Z,91.00
2022-11-16T02:41:58.423Z,90.60
2022-11-16T02:47:10.528Z,89.50
2022-11-16T02:52:19.125Z,85.20
2022-11-16T02:57:45.221Z,87.90
2022-11-16T03:03:08.430Z,83.40
2022-11-16T03:08:23.290Z,80.60
2022-11-16T03:13:35.563Z,80.60
2022-11-16T03:18:44.871Z,75.90
2022-11-16T03:23:53.197Z,74.10
2022-11-16T03:29:08.775Z,68.00
2022-11-16T03:34:20.980Z,65.60
2022-11-16T03:39:33.045Z,60.60
2022-11-16T03:44:43.788Z,54.20
2022-11-16T03:49:50.888Z,54.30
2022-11-16T03:54:58.964Z,50.50
2022-11-16T04:00:10.312Z,48.70
2022-11-16T04:05:42.385Z,48.20
2022-11-16T04:11:12.257Z,49.40
2022-11-16T04:16:36.881Z,47.60
2022-11-16T04:22:08.506Z,49.30
2022-11-16T04:27:36.086Z,50.10
2022-11-16T04:33:01.499Z,49.90
2022-11-16T04:38:08.640Z,48.60
2022-11-16T04:43:15.979Z,48.30
2022-11-16T04:48:23.832Z,48.80
2022-11-16T04:53:33.290Z,49.60
2022-11-16T04:59:01.584Z,47.80
2022-11-16T05:04:09.750Z,49.90
2022-11-16T05:09:17.855Z,47.60
2022-11-16T05:14:25.210Z,49.20
2022-11-16T05:19:51.552Z,46.90
2022-11-16T05:24:58.896Z,49.80
2022-11-16T05:30:07.822Z,47.80
2022-11-16T05:35:15.135Z,47.10
2022-11-16T05:40:23.102Z,46.70
2022-11-16T05:45:35.601Z,46.90
2022-11-16T05:50:43.343Z,43.40
2022-11-16T05:55:56.700Z,43.40
2022-11-16T06:01:04.135Z,45.80
2022-11-16T06:06:12.740Z,45.80
2022-11-16T06:11:19.981Z,44.30
2022-11-16T06:16:27.280Z,44.90
2022-11-16T06:21:34.911Z,43.90
2022-11-16T06:26:43.463Z,45.40
2022-11-16T06:31:50.536Z,44.90
2022-11-16T06:36:57.786Z,42.70
2022-11-16T06:42:05.302Z,45.00
2022-11-16T06:47:13.038Z,46.60
2022-11-16T06:52:20.199Z,43.30
2022-11-16T06:57:27.555Z,45.70
2022-11-16T07:02:34.707Z,45.20
2022-11-16T07:07:42.302Z,47.30
2022-11-16T07:12:49.415Z,50.30
2022-11-16T07:18:03.849Z,49.10
2022-11-16T07:23:14.171Z,45.30
2022-11-16T07:28:24.697Z,46.30
2022-11-16T07:33:32.081Z,47.30
2022-11-16T07:39:04.700Z,46.70
2022-11-16T07:44:12.355Z,43.40
2022-11-16T07:49:21.925Z,44.20
2022-11-16T07:59:38.960Z,44.00
2022-11-16T08:04:47.228Z,41.90
2022-11-16T08:09:54.572Z,42.90
2022-11-16T08:15:02.295Z,42.60
2022-11-16T08:20:11.822Z,42.60
2022-11-16T08:25:19.843Z,42.00
2022-11-16T08:30:27.364Z,39.10
2022-11-16T08:35:36.367Z,40.50
2022-11-16T08:40:43.475Z,40.90
2022-11-16T08:45:51.546Z,39.60
2022-11-16T08:51:21.116Z,38.10
2022-11-16T08:56:33.790Z,36.10
2022-11-16T09:01:42.421Z,37.20
2022-11-16T09:06:49.357Z,36.20
2022-11-16T09:11:57.202Z,39.70
2022-11-16T09:17:04.634Z,39.20
2022-11-16T09:22:11.743Z,37.20
2022-11-16T09:27:22.045Z,34.30
2022-11-16T09:32:29.020Z,33.80
2022-11-16T09:37:36.040Z,31.90
2022-11-16T09:42:58.540Z,36.30
2022-11-16T09:48:12.249Z,34.80
2022-11-16T09:53:31.693Z,34.50
2022-11-16T09:58:45.211Z,31.80
2022-11-16T10:03:56.740Z,32.60
2022-11-16T10:09:04.098Z,32.30
2022-11-16T10:14:25.443Z,33.10
2022-11-16T10:19:40.369Z,34.30
2022-11-16T10:24:57.981Z,33.40
2022-11-16T10:30:14.346Z,32.60
2022-11-16T10:35:28.646Z,32.80
2022-11-16T10:40:40.090Z,32.90
2022-11-16T10:45:52.938Z,32.90
2022-11-16T10:51:00.188Z,32.10
2022-11-16T10:56:18.849Z,33.50
2022-11-16T11:01:37.894Z,30.20
2022-11-16T11:06:45.770Z,35.80
2022-11-16T11:12:20.771Z,34.60
2022-11-16T11:17:28.608Z,36.60
2022-11-16T11:22:43.144Z,37.60
2022-11-16T11:27:50.975Z,37.40
2022-11-16T11:32:59.150Z,38.10
2022-11-16T11:38:08.444Z,39.70
2022-11-16T11:43:25.284Z,40.00
2022-11-16T11:48:47.868Z,41.20
2022-11-16T11:53:58.733Z,37.80
2022-11-16T11:59:06.203Z,36.40
2022-11-16T12:05:04.676Z,32.80
2022-11-16T12:10:22.503Z,30.20
2022-11-16T12:15:55.578Z,28.10
2022-11-16T12:21:12.798Z,30.70
2022-11-16T12:26:29.494Z,31.10
2022-11-16T12:31:52.400Z,32.10
2022-11-16T12:37:05.346Z,30.10
2022-11-16T12:42:24.610Z,28.00
2022-11-16T12:47:39.871Z,29.90
2022-11-16T12:53:10.599Z,27.60
2022-11-16T12:58:28.530Z,32.30
2022-11-16T13:03:43.749Z,30.10
2022-11-16T13:09:04.740Z,29.10
2022-11-16T13:14:18.796Z,28.20
2022-11-16T13:19:26.455Z,30.70
2022-11-16T13:24:51.014Z,30.90
2022-11-16T13:30:02.923Z,30.30
2022-11-16T13:40:27.170Z,32.00
2022-11-16T13:45:38.999Z,30.90
2022-11-16T13:50:51.721Z,31.00
2022-11-16T13:56:01.333Z,29.40
2022-11-16T14:01:11.005Z,29.30
2022-11-16T14:06:53.038Z,30.30
2022-11-16T14:12:19.866Z,31.80
2022-11-16T14:17:53.816Z,30.20
2022-11-16T14:23:12.985Z,26.80
2022-11-16T14:28:44.328Z,25.80
2022-11-16T14:33:54.431Z,26.80
2022-11-16T14:39:41.183Z,24.80
2022-11-16T14:44:49.218Z,22.20
2022-11-16T14:49:57.443Z,22.80
2022-11-16T14:55:10.860Z,23.90
2022-11-16T15:00:25.842Z,23.90
2022-11-16T15:05:37.678Z,27.50
2022-11-16T15:10:52.356Z,29.30
2022-11-16T15:16:16.871Z,27.80
2022-11-16T15:21:25.688Z,26.40
2022-11-16T15:26:32.619Z,26.30
2022-11-16T15:31:42.745Z,26.30
2022-11-16T15:36:50.307Z,24.30
2022-11-16T15:42:03.258Z,25.40
2022-11-16T15:47:13.397Z,27.40
2022-11-16T15:52:50.423Z,29.20
2022-11-16T15:58:15.015Z,31.10
2022-11-16T16:03:25.550Z,27.90
2022-11-16T16:08:37.938Z,28.00
2022-11-16T16:13:57.631Z,27.30
2022-11-16T16:19:09.932Z,29.90
2022-11-16T16:24:45.134Z,30.80
2022-11-16T16:29:54.051Z,26.80
2022-11-16T16:35:02.681Z,25.40
2022-11-16T16:40:11.814Z,25.70
2022-11-16T16:45:22.462Z,23.60
2022-11-16T16:50:29.328Z,25.80
2022-11-16T16:55:37.706Z,22.70
2022-11-16T17:00:44.873Z,22.50
2022-11-16T17:05:53.726Z,24.20
2022-11-16T17:11:00.688Z,24.30
2022-11-16T17:16:09.042Z,22.40
2022-11-16T17:21:15.986Z,21.70
2022-11-16T17:26:22.994Z,23.60
2022-11-16T17:31:30.109Z,21.80
2022-11-16T17:36:37.328Z,19.70
2022-11-16T17:41:44.393Z,17.90
2022-11-16T17:46:51.579Z,17.50
2022-11-16T17:51:58.595Z,21.90
2022-11-16T17:57:05.589Z,17.60
2022-11-16T18:02:14.315Z,19.00
2022-11-16T18:07:21.658Z,19.10
2022-11-16T18:12:29.240Z,22.20
2022-11-16T18:17:36.532Z,19.00
2022-11-16T18:22:44.892Z,15.70
2022-11-16T18:27:55.151Z,17.20
2022-11-16T18:33:02.235Z,16.10
2022-11-16T18:38:13.108Z,17.50
2022-11-16T18:43:20.061Z,14.50
2022-11-16T18:48:27.594Z,14.80
2022-11-16T18:53:35.322Z,17.00
2022-11-16T18:58:50.398Z,16.20
2022-11-16T19:03:59.255Z,14.80
2022-11-16T19:09:09.713Z,14.50
2022-11-16T19:14:16.982Z,13.80
2022-11-16T19:19:24.507Z,13.00
2022-11-16T19:24:31.891Z,14.90
2022-11-16T19:29:39.011Z,15.50
2022-11-16T19:34:46.202Z,15.00
2022-11-16T19:39:53.104Z,15.50
2022-11-16T19:45:00.416Z,15.70
2022-11-16T19:50:10.136Z,19.20
2022-11-16T19:55:17.507Z,17.50
2022-11-16T20:00:25.042Z,15.80
2022-11-16T20:05:33.402Z,15.10
2022-11-16T20:10:40.451Z,14.00
2022-11-16T20:15:50.185Z,15.20
2022-11-16T20:21:00.896Z,15.00
2022-11-16T20:26:09.997Z,14.40
2022-11-16T20:31:21.307Z,16.00
2022-11-16T20:36:30.064Z,14.30
2022-11-16T20:41:37.443Z,16.80
2022-11-16T20:46:45.354Z,15.80
2022-11-16T20:51:52.620Z,15.80
2022-11-16T20:57:00.090Z,17.30
2022-11-16T21:02:07.234Z,16.60
2022-11-16T21:07:14.636Z,15.90
2022-11-16T21:12:50.599Z,19.20
2022-11-16T21:17:57.725Z,22.30
2022-11-16T21:23:05.319Z,21.30
2022-11-16T21:28:12.335Z,21.60
2022-11-16T21:33:19.404Z,17.80
2022-11-16T21:38:27.410Z,16.60
2022-11-16T21:43:36.594Z,17.80
2022-11-16T21:48:44.551Z,16.90
2022-11-16T21:53:51.866Z,19.00
2022-11-16T21:58:59.026Z,17.50
2022-11-16T22:04:23.640Z,17.70
2022-11-16T22:09:30.821Z,16.50
2022-11-16T22:14:38.296Z,16.60
2022-11-16T22:19:45.870Z,16.90
2022-11-16T22:24:54.113Z,19.60
2022-11-16T22:30:02.018Z,19.60
2022-11-16T22:35:10.499Z,20.30
2022-11-16T22:40:18.616Z,20.40
2022-11-16T22:45:26.271Z,20.40
2022-11-16T22:50:34.232Z,21.70
2022-11-16T22:55:42.085Z,21.50
2022-11-16T23:00:49.902Z,22.60
2022-11-16T23:05:57.652Z,24.10
2022-11-16T23:11:25.344Z,22.00
2022-11-16T23:16:33.252Z,23.10
2022-11-16T23:21:58.106Z,24.30
2022-11-16T23:27:23.799Z,22.10
2022-11-16T23:32:31.782Z,22.70
2022-11-16T23:37:52.754Z,22.10
2022-11-16T23:43:18.020Z,19.20
2022-11-16T23:48:25.657Z,19.80
2022-11-16T23:53:33.770Z,19.60
2022-11-16T23:58:41.633Z,19.10
